createdAt,value
2018-05-13T00:01:57.595Z,100593.23
2018-05-13T00:04:30.130Z,100606.85
2018-05-13T00:07:02.627Z,100598.50
2018-05-13T00:09:35.157Z,100597.00
2018-05-13T00:12:07.702Z,100598.64
2018-05-13T00:14:40.271Z,100600.02
2018-05-13T00:17:12.782Z,100600.32
2018-05-13T00:19:45.315Z,100594.50
2018-05-13T00:22:17.825Z,100594.33
2018-05-13T00:24:50.352Z,100593.33
2018-05-13T00:27:22.861Z,100593.45
2018-05-13T00:29:55.386Z,100596.59
2018-05-13T00:32:27.892Z,100588.48
2018-05-13T00:35:00.430Z,100579.31
2018-05-13T00:37:32.946Z,100565.70
2018-05-13T00:40:05.553Z,100566.62
2018-05-13T00:42:38.069Z,100578.22
2018-05-13T00:45:10.671Z,100572.63
2018-05-13T00:47:43.191Z,100578.70
2018-05-13T00:50:15.722Z,100571.56
2018-05-13T00:52:48.226Z,100574.11
2018-05-13T00:55:20.751Z,100570.13
2018-05-13T00:57:53.257Z,100560.56
2018-05-13T01:00:25.788Z,100566.52
2018-05-13T01:02:58.301Z,100566.84
2018-05-13T01:05:30.836Z,100566.48
2018-05-13T01:08:03.351Z,100562.02
2018-05-13T01:10:35.944Z,100560.28
2018-05-13T01:13:08.450Z,100555.41
2018-05-13T01:15:40.977Z,100558.00
2018-05-13T01:18:13.493Z,100551.67
2018-05-13T01:20:46.231Z,100550.89
2018-05-13T01:23:18.740Z,100549.55
2018-05-13T01:25:51.273Z,100556.06
2018-05-13T01:28:23.786Z,100552.88
2018-05-13T01:30:56.307Z,100553.98
2018-05-13T01:33:28.836Z,100545.87
2018-05-13T01:36:01.359Z,100549.45
2018-05-13T01:38:33.887Z,100542.92
2018-05-13T01:41:06.411Z,100546.50
2018-05-13T01:43:38.944Z,100541.49
2018-05-13T01:46:11.463Z,100541.28
2018-05-13T01:48:43.995Z,100544.80
2018-05-13T01:51:16.521Z,100546.67
2018-05-13T01:53:49.049Z,100537.41
2018-05-13T01:56:21.554Z,100535.36
2018-05-13T01:58:54.082Z,100531.77
2018-05-13T02:01:26.595Z,100531.02
2018-05-13T02:03:59.117Z,100526.55
2018-05-13T02:06:31.622Z,100523.23
2018-05-13T02:09:04.148Z,100520.39
2018-05-13T02:11:36.676Z,100527.38
2018-05-13T02:14:09.213Z,100522.25
2018-05-13T02:16:41.739Z,100525.56
2018-05-13T02:19:14.265Z,100522.31
2018-05-13T02:21:46.809Z,100521.81
2018-05-13T02:24:19.361Z,100520.09
2018-05-13T02:26:51.864Z,100519.25
2018-05-13T02:29:24.389Z,100522.11
2018-05-13T02:31:56.919Z,100515.02
2018-05-13T02:34:29.450Z,100517.39
2018-05-13T02:37:01.955Z,100520.70
2018-05-13T02:39:34.487Z,100517.70
2018-05-13T02:42:07.015Z,100516.25
2018-05-13T02:44:39.539Z,100505.23
2018-05-13T02:47:12.064Z,100512.68
2018-05-13T02:49:44.608Z,100513.36
2018-05-13T02:52:17.105Z,100512.53
2018-05-13T02:54:49.648Z,100508.17
2018-05-13T02:57:22.166Z,100514.17
2018-05-13T02:59:54.714Z,100517.09
2018-05-13T03:02:27.287Z,100508.30
2018-05-13T03:04:59.815Z,100508.76
2018-05-13T03:07:32.334Z,100510.56
2018-05-13T03:10:04.910Z,100507.65
2018-05-13T03:12:37.437Z,100509.52
2018-05-13T03:15:10.030Z,100503.47
2018-05-13T03:17:42.560Z,100504.98
2018-05-13T03:20:15.089Z,100500.95
2018-05-13T03:22:47.601Z,100500.36
2018-05-13T03:25:20.121Z,100510.03
2018-05-13T03:27:52.625Z,100500.90
2018-05-13T03:30:25.156Z,100508.53
2018-05-13T03:32:57.708Z,100505.85
2018-05-13T03:35:30.237Z,100502.99
2018-05-13T03:38:02.738Z,100503.02
2018-05-13T03:40:35.284Z,100502.01
2018-05-13T03:43:07.789Z,100502.23
2018-05-13T03:45:40.328Z,100495.36
2018-05-13T03:48:12.841Z,100497.42
2018-05-13T03:50:45.397Z,100496.75
2018-05-13T03:53:17.895Z,100497.02
2018-05-13T03:55:50.436Z,100492.32
2018-05-13T03:58:22.960Z,100496.77
2018-05-13T04:00:55.486Z,100494.73
2018-05-13T04:03:27.998Z,100497.33
2018-05-13T04:06:00.533Z,100490.66
2018-05-13T04:08:53.693Z,100500.73
2018-05-13T04:11:38.032Z,100493.66
2018-05-13T04:14:22.400Z,100498.83
2018-05-13T04:16:54.935Z,100497.27
2018-05-13T04:19:27.464Z,100499.44
2018-05-13T04:21:59.985Z,100494.91
2018-05-13T04:24:32.503Z,100495.94
2018-05-13T04:27:05.086Z,100496.72
2018-05-13T04:29:37.887Z,100496.59
2018-05-13T04:32:10.432Z,100499.09
2018-05-13T04:34:42.973Z,100500.09
2018-05-13T04:37:15.856Z,100492.59
2018-05-13T04:39:48.402Z,100487.58
2018-05-13T04:42:20.935Z,100489.84
2018-05-13T04:44:53.466Z,100487.05
2018-05-13T04:47:26.017Z,100487.44
2018-05-13T04:49:58.525Z,100486.27
2018-05-13T04:52:31.049Z,100490.25
2018-05-13T04:55:03.562Z,100490.25
2018-05-13T04:57:36.602Z,100494.92
2018-05-13T05:00:09.187Z,100491.37
2018-05-13T05:02:41.708Z,100489.98
2018-05-13T05:05:14.228Z,100490.89
2018-05-13T05:07:46.747Z,100486.99
2018-05-13T05:10:19.285Z,100496.30
2018-05-13T05:12:51.797Z,100483.64
2018-05-13T05:15:24.332Z,100480.44
2018-05-13T05:17:56.847Z,100485.38
2018-05-13T05:20:29.376Z,100490.17
2018-05-13T05:23:01.882Z,100489.15
2018-05-13T05:25:34.485Z,100498.47
2018-05-13T05:28:06.985Z,100498.81
2018-05-13T05:30:39.540Z,100496.36
2018-05-13T05:33:12.058Z,100489.65
2018-05-13T05:35:44.696Z,100488.70
2018-05-13T05:38:17.156Z,100484.91
2018-05-13T05:40:49.686Z,100495.83
2018-05-13T05:43:22.189Z,100491.52
2018-05-13T05:45:54.726Z,100497.72
2018-05-13T05:48:27.259Z,100491.41
2018-05-13T05:50:59.785Z,100496.61
2018-05-13T05:53:32.297Z,100486.05
2018-05-13T05:56:04.836Z,100489.19
2018-05-13T05:58:37.340Z,100483.92
2018-05-13T06:01:10.238Z,100493.76
2018-05-13T06:03:42.829Z,100489.03
2018-05-13T06:06:15.368Z,100486.81
2018-05-13T06:08:47.986Z,100492.41
2018-05-13T06:11:20.510Z,100488.70
2018-05-13T06:13:53.020Z,100480.48
2018-05-13T06:16:25.555Z,100476.32
2018-05-13T06:18:58.057Z,100478.56
2018-05-13T06:21:30.581Z,100476.27
2018-05-13T06:24:03.084Z,100478.25
2018-05-13T06:26:35.674Z,100472.22
2018-05-13T06:29:08.231Z,100467.97
2018-05-13T06:31:40.769Z,100474.09
2018-05-13T06:34:13.291Z,100468.98
2018-05-13T06:36:46.285Z,100470.86
2018-05-13T06:39:18.808Z,100465.11
2018-05-13T06:41:51.331Z,100462.60
2018-05-13T06:44:23.841Z,100473.11
2018-05-13T06:46:56.366Z,100465.78
2018-05-13T06:49:28.882Z,100469.53
2018-05-13T06:52:01.409Z,100466.59
2018-05-13T06:54:33.958Z,100462.91
2018-05-13T06:57:06.500Z,100475.43
2018-05-13T06:59:39.149Z,100469.45
2018-05-13T07:02:11.787Z,100474.57
2018-05-13T07:04:44.386Z,100470.53
2018-05-13T07:07:16.922Z,100469.27
2018-05-13T07:09:49.432Z,100461.11
2018-05-13T07:12:21.971Z,100457.16
2018-05-13T07:14:54.477Z,100458.39
2018-05-13T07:17:27.018Z,100458.89
2018-05-13T07:19:59.522Z,100458.55
2018-05-13T07:22:32.040Z,100457.16
2018-05-13T07:25:04.554Z,100451.98
2018-05-13T07:27:37.335Z,100449.47
2018-05-13T07:30:09.839Z,100448.39
2018-05-13T07:32:42.411Z,100446.78
2018-05-13T07:35:14.928Z,100440.67
2018-05-13T07:37:47.658Z,100440.95
2018-05-13T07:40:20.179Z,100440.39
2018-05-13T07:45:31.368Z,100441.59
2018-05-13T07:48:03.906Z,100427.70
2018-05-13T07:50:36.837Z,100435.41
2018-05-13T07:53:09.373Z,100435.62
2018-05-13T07:55:41.899Z,100428.11
2018-05-13T07:58:14.455Z,100424.13
2018-05-13T08:00:46.985Z,100426.73
2018-05-13T08:03:19.521Z,100428.30
2018-05-13T08:05:52.031Z,100428.73
2018-05-13T08:08:24.561Z,100431.48
2018-05-13T08:10:57.088Z,100426.96
2018-05-13T08:13:29.615Z,100432.78
2018-05-13T08:16:02.131Z,100429.06
2018-05-13T08:18:34.878Z,100424.98
2018-05-13T08:21:07.585Z,100425.39
2018-05-13T08:23:40.123Z,100420.03
2018-05-13T08:26:13.492Z,100420.83
2018-05-13T08:28:46.005Z,100428.38
2018-05-13T08:31:18.530Z,100420.25
2018-05-13T08:33:51.104Z,100430.73
2018-05-13T08:36:23.649Z,100422.92
2018-05-13T08:38:56.161Z,100426.41
2018-05-13T08:41:28.711Z,100424.32
2018-05-13T08:44:01.245Z,100424.32
2018-05-13T08:46:33.780Z,100410.44
2018-05-13T08:49:08.422Z,100412.69
2018-05-13T08:51:40.996Z,100408.31
2018-05-13T08:54:13.548Z,100410.39
2018-05-13T08:56:46.110Z,100405.39
2018-05-13T08:59:18.619Z,100403.73
2018-05-13T09:01:51.149Z,100403.92
2018-05-13T09:04:23.675Z,100402.77
2018-05-13T09:06:56.208Z,100408.10
2018-05-13T09:09:28.720Z,100403.85
2018-05-13T09:12:01.265Z,100398.63
2018-05-13T09:14:33.785Z,100398.61
2018-05-13T09:17:06.327Z,100403.45
2018-05-13T09:19:39.076Z,100390.38
2018-05-13T09:22:11.633Z,100397.05
2018-05-13T09:24:44.141Z,100391.20
2018-05-13T09:27:16.806Z,100396.12
2018-05-13T09:29:49.517Z,100386.84
2018-05-13T09:32:22.045Z,100393.67
2018-05-13T09:34:54.545Z,100384.80
2018-05-13T09:37:27.071Z,100380.11
2018-05-13T09:39:59.579Z,100379.34
2018-05-13T09:42:32.109Z,100381.00
2018-05-13T09:45:04.617Z,100373.07
2018-05-13T09:47:37.796Z,100374.88
2018-05-13T09:50:10.457Z,100375.39
2018-05-13T09:52:43.010Z,100376.45
2018-05-13T09:55:15.681Z,100374.14
2018-05-13T09:57:48.211Z,100373.84
2018-05-13T10:00:20.740Z,100372.69
2018-05-13T10:02:53.285Z,100369.30
2018-05-13T10:05:25.795Z,100369.25
2018-05-13T10:07:58.319Z,100370.16
2018-05-13T10:10:30.811Z,100367.15
2018-05-13T10:13:03.328Z,100361.31
2018-05-13T10:15:35.871Z,100363.17
2018-05-13T10:18:08.546Z,100352.95
2018-05-13T10:20:41.049Z,100351.92
2018-05-13T10:23:13.576Z,100352.14
2018-05-13T10:25:46.076Z,100358.31
2018-05-13T10:28:18.602Z,100355.32
2018-05-13T10:30:51.108Z,100349.55
2018-05-13T10:33:23.645Z,100345.06
2018-05-13T10:35:56.152Z,100349.53
2018-05-13T10:38:28.977Z,100340.89
2018-05-13T10:41:01.658Z,100338.25
2018-05-13T10:43:34.236Z,100331.58
2018-05-13T10:46:06.812Z,100324.19
2018-05-13T10:48:39.334Z,100322.47
2018-05-13T10:51:11.827Z,100323.95
2018-05-13T10:53:45.215Z,100335.58
2018-05-13T10:56:17.723Z,100328.97
2018-05-13T10:58:50.253Z,100320.81
2018-05-13T11:01:22.758Z,100320.21
2018-05-13T11:03:55.284Z,100324.23
2018-05-13T11:06:27.807Z,100321.09
2018-05-13T11:09:00.334Z,100319.20
2018-05-13T11:11:32.840Z,100320.42
2018-05-13T11:14:05.504Z,100318.59
2018-05-13T11:16:38.006Z,100315.01
2018-05-13T11:19:10.640Z,100312.70
2018-05-13T11:21:43.171Z,100321.77
2018-05-13T11:24:15.760Z,100315.11
2018-05-13T11:26:48.283Z,100300.53
2018-05-13T11:29:20.826Z,100295.57
2018-05-13T11:31:53.339Z,100306.97
2018-05-13T11:34:25.923Z,100305.59
2018-05-13T11:36:58.440Z,100299.92
2018-05-13T11:39:30.966Z,100296.79
2018-05-13T11:42:03.460Z,100309.41
2018-05-13T11:44:36.289Z,100300.33
2018-05-13T11:47:08.813Z,100294.89
2018-05-13T11:49:41.381Z,100289.73
2018-05-13T11:52:14.048Z,100289.70
2018-05-13T11:54:46.571Z,100287.75
2018-05-13T11:57:19.085Z,100285.80
2018-05-13T11:59:51.597Z,100282.95
2018-05-13T12:02:24.183Z,100280.27
2018-05-13T12:04:56.644Z,100281.63
2018-05-13T12:07:29.169Z,100281.28
2018-05-13T12:10:01.670Z,100274.30
2018-05-13T12:12:34.200Z,100271.44
2018-05-13T12:15:06.815Z,100270.31
2018-05-13T12:17:39.386Z,100276.61
2018-05-13T12:20:12.437Z,100276.00
2018-05-13T12:22:45.173Z,100276.22
2018-05-13T12:25:17.673Z,100274.27
2018-05-13T12:27:50.219Z,100273.02
2018-05-13T12:30:22.727Z,100270.98
2018-05-13T12:32:55.251Z,100267.87
2018-05-13T12:35:27.752Z,100270.16
2018-05-13T12:38:00.335Z,100268.88
2018-05-13T12:40:32.816Z,100262.90
2018-05-13T12:43:05.429Z,100271.82
2018-05-13T12:45:37.965Z,100270.70
2018-05-13T12:48:10.516Z,100265.95
2018-05-13T12:50:43.070Z,100255.96
2018-05-13T12:53:15.583Z,100257.45
2018-05-13T12:55:48.090Z,100261.02
2018-05-13T12:58:20.619Z,100263.08
2018-05-13T13:00:53.126Z,100259.52
2018-05-13T13:03:25.656Z,100253.40
2018-05-13T13:05:58.160Z,100246.50
2018-05-13T13:08:30.686Z,100242.91
2018-05-13T13:11:03.179Z,100240.53
2018-05-13T13:13:35.707Z,100238.80
2018-05-13T13:16:08.208Z,100231.72
2018-05-13T13:18:40.735Z,100225.95
2018-05-13T13:21:13.241Z,100229.35
2018-05-13T13:23:45.777Z,100223.28
2018-05-13T13:26:18.280Z,100231.49
2018-05-13T13:28:50.817Z,100222.56
2018-05-13T13:31:23.319Z,100218.45
2018-05-13T13:33:55.836Z,100214.87
2018-05-13T13:36:28.336Z,100221.59
2018-05-13T13:39:00.851Z,100220.38
2018-05-13T13:41:33.351Z,100214.31
2018-05-13T13:44:06.445Z,100207.23
2018-05-13T13:46:39.089Z,100217.16
2018-05-13T13:49:11.611Z,100210.94
2018-05-13T13:51:44.119Z,100211.16
2018-05-13T13:54:16.841Z,100205.80
2018-05-13T13:56:49.348Z,100205.23
2018-05-13T13:59:21.932Z,100200.52
2018-05-13T14:01:54.408Z,100200.63
2018-05-13T14:04:26.946Z,100196.30
2018-05-13T14:06:59.445Z,100189.32
2018-05-13T14:09:31.968Z,100179.94
2018-05-13T14:12:04.593Z,100181.66
2018-05-13T14:14:37.094Z,100189.61
2018-05-13T14:17:09.972Z,100177.31
2018-05-13T14:19:42.817Z,100179.23
2018-05-13T14:22:15.331Z,100181.70
2018-05-13T14:24:47.869Z,100184.02
2018-05-13T14:27:20.381Z,100181.87
2018-05-13T14:29:52.902Z,100171.36
2018-05-13T14:32:25.428Z,100176.45
2018-05-13T14:34:58.095Z,100173.31
2018-05-13T14:37:30.596Z,100175.69
2018-05-13T14:40:03.121Z,100166.32
2018-05-13T14:42:35.924Z,100178.11
2018-05-13T14:45:08.945Z,100171.42
2018-05-13T14:47:41.506Z,100166.67
2018-05-13T14:50:14.145Z,100165.23
2018-05-13T14:52:46.639Z,100166.77
2018-05-13T14:55:19.168Z,100164.28
2018-05-13T14:57:51.668Z,100168.83
2018-05-13T15:00:24.187Z,100161.28
2018-05-13T15:02:56.760Z,100164.14
2018-05-13T15:05:29.259Z,100157.53
2018-05-13T15:08:01.779Z,100157.16
2018-05-13T15:10:35.386Z,100163.65
2018-05-13T15:13:07.885Z,100158.03
2018-05-13T15:15:40.649Z,100158.84
2018-05-13T15:18:13.150Z,100152.27
2018-05-13T15:20:45.662Z,100156.39
2018-05-13T15:23:18.169Z,100157.70
2018-05-13T15:25:50.700Z,100148.19
2018-05-13T15:28:23.240Z,100142.38
2018-05-13T15:30:55.744Z,100150.95
2018-05-13T15:33:28.271Z,100144.20
2018-05-13T15:36:00.783Z,100150.38
2018-05-13T15:38:33.305Z,100138.14
2018-05-13T15:41:06.000Z,100144.97
2018-05-13T15:43:38.545Z,100143.56
2018-05-13T15:46:11.457Z,100147.33
2018-05-13T15:48:43.979Z,100139.34
2018-05-13T15:51:16.541Z,100138.03
2018-05-13T15:53:49.100Z,100140.44
2018-05-13T15:56:21.600Z,100135.45
2018-05-13T15:58:54.126Z,100133.88
2018-05-13T16:01:26.642Z,100127.70
2018-05-13T16:03:59.173Z,100131.46
2018-05-13T16:06:31.743Z,100124.52
2018-05-13T16:09:04.852Z,100133.60
2018-05-13T16:11:37.518Z,100131.72
2018-05-13T16:14:10.046Z,100131.73
2018-05-13T16:16:42.689Z,100136.70
2018-05-13T16:19:15.220Z,100142.18
2018-05-13T16:21:48.029Z,100140.47
2018-05-13T16:24:20.546Z,100148.55
2018-05-13T16:26:53.059Z,100151.70
2018-05-13T16:29:25.629Z,100136.89
2018-05-13T16:31:58.117Z,100144.11
2018-05-13T16:34:30.634Z,100150.92
2018-05-13T16:37:03.151Z,100151.66
2018-05-13T16:39:35.683Z,100155.66
2018-05-13T16:42:08.382Z,100162.00
2018-05-13T16:44:40.924Z,100156.86
2018-05-13T16:47:13.429Z,100157.09
2018-05-13T16:49:46.117Z,100163.72
2018-05-13T16:52:19.463Z,100154.92
2018-05-13T16:54:52.000Z,100158.31
2018-05-13T16:57:24.513Z,100157.89
2018-05-13T16:59:57.041Z,100159.49
2018-05-13T17:02:29.641Z,100163.55
2018-05-13T17:05:02.084Z,100157.87
2018-05-13T17:07:35.680Z,100159.77
2018-05-13T17:10:08.209Z,100161.81
2018-05-13T17:12:40.728Z,100159.72
2018-05-13T17:15:13.245Z,100172.55
2018-05-13T17:17:45.745Z,100169.45
2018-05-13T17:20:18.264Z,100172.25
2018-05-13T17:22:50.765Z,100169.23
2018-05-13T17:25:23.278Z,100164.80
2018-05-13T17:27:55.889Z,100170.28
2018-05-13T17:30:28.418Z,100171.50
2018-05-13T17:33:00.917Z,100174.16
2018-05-13T17:35:33.505Z,100184.70
2018-05-13T17:38:05.967Z,100182.83
2018-05-13T17:40:38.488Z,100181.73
2018-05-13T17:43:11.437Z,100191.48
2018-05-13T17:45:43.989Z,100190.19
2018-05-13T17:48:16.489Z,100187.78
2018-05-13T17:50:49.007Z,100188.94
2018-05-13T17:53:21.505Z,100181.63
2018-05-13T17:55:54.017Z,100187.27
2018-05-13T17:58:26.522Z,100192.18
2018-05-13T18:00:59.088Z,100188.28
2018-05-13T18:03:31.584Z,100194.23
2018-05-13T18:06:04.099Z,100194.77
2018-05-13T18:08:36.609Z,100192.34
2018-05-13T18:11:09.148Z,100202.13
2018-05-13T18:13:41.671Z,100197.75
2018-05-13T18:16:14.206Z,100204.66
2018-05-13T18:18:46.729Z,100215.02
2018-05-13T18:21:19.261Z,100209.53
2018-05-13T18:23:51.760Z,100215.98
2018-05-13T18:26:24.280Z,100217.42
2018-05-13T18:28:56.781Z,100222.73
2018-05-13T18:31:29.305Z,100222.48
2018-05-13T18:34:01.804Z,100227.89
2018-05-13T18:36:34.359Z,100230.45
2018-05-13T18:39:07.033Z,100227.98
2018-05-13T18:41:39.449Z,100236.97
2018-05-13T18:44:11.953Z,100230.28
2018-05-13T18:46:44.472Z,100232.90
2018-05-13T18:49:16.981Z,100234.16
2018-05-13T18:51:49.504Z,100241.67
2018-05-13T18:54:21.997Z,100239.20
2018-05-13T18:56:54.536Z,100241.97
2018-05-13T18:59:27.033Z,100244.30
2018-05-13T19:01:59.553Z,100247.50
2018-05-13T19:04:32.061Z,100253.18
2018-05-13T19:07:04.612Z,100248.33
2018-05-13T19:09:37.387Z,100251.88
2018-05-13T19:12:10.135Z,100251.27
2018-05-13T19:14:42.701Z,100258.80
2018-05-13T19:17:15.314Z,100258.45
2018-05-13T19:19:47.854Z,100263.69
2018-05-13T19:22:20.364Z,100266.03
2018-05-13T19:24:52.965Z,100270.87
2018-05-13T19:27:25.404Z,100278.27
2018-05-13T19:29:57.921Z,100277.91
2018-05-13T19:32:30.422Z,100276.86
2018-05-13T19:35:03.297Z,100280.16
2018-05-13T19:37:35.796Z,100275.13
2018-05-13T19:40:08.331Z,100275.47
2018-05-13T19:42:40.829Z,100272.36
2018-05-13T19:45:13.473Z,100278.23
2018-05-13T19:47:45.970Z,100276.95
2018-05-13T19:50:18.487Z,100280.16
2018-05-13T19:52:50.982Z,100281.52
2018-05-13T19:55:23.501Z,100289.00
2018-05-13T19:57:55.985Z,100289.73
2018-05-13T20:00:28.499Z,100293.21
2018-05-13T20:03:01.068Z,100303.62
2018-05-13T20:05:33.589Z,100305.94
2018-05-13T20:08:07.080Z,100307.64
2018-05-13T20:10:39.607Z,100306.84
2018-05-13T20:13:12.106Z,100310.56
2018-05-13T20:15:44.623Z,100318.47
2018-05-13T20:18:17.144Z,100312.89
2018-05-13T20:20:49.653Z,100316.44
2018-05-13T20:23:25.924Z,100312.09
2018-05-13T20:25:58.433Z,100312.86
2018-05-13T20:28:30.937Z,100311.30
2018-05-13T20:31:03.664Z,100316.59
2018-05-13T20:33:36.223Z,100316.20
2018-05-13T20:36:09.773Z,100318.79
2018-05-13T20:38:42.315Z,100310.54
2018-05-13T20:41:14.850Z,100312.73
2018-05-13T20:43:47.355Z,100318.47
2018-05-13T20:46:19.871Z,100323.70
2018-05-13T20:48:52.375Z,100318.73
2018-05-13T20:51:24.897Z,100322.00
2018-05-13T20:53:57.425Z,100326.90
2018-05-13T20:56:29.994Z,100325.85
2018-05-13T20:59:02.479Z,100328.94
2018-05-13T21:01:35.025Z,100337.62
2018-05-13T21:04:07.555Z,100342.77
2018-05-13T21:06:40.111Z,100340.28
2018-05-13T21:09:12.651Z,100336.83
2018-05-13T21:11:45.286Z,100339.75
2018-05-13T21:14:17.782Z,100338.40
2018-05-13T21:16:50.378Z,100339.75
2018-05-13T21:19:23.272Z,100346.08
2018-05-13T21:21:55.847Z,100341.41
2018-05-13T21:24:28.364Z,100345.41
2018-05-13T21:27:01.267Z,100343.23
2018-05-13T21:29:33.813Z,100340.15
2018-05-13T21:32:07.290Z,100340.64
2018-05-13T21:34:40.272Z,100338.41
2018-05-13T21:37:12.793Z,100344.83
2018-05-13T21:39:45.475Z,100343.96
2018-05-13T21:42:18.050Z,100348.86
2018-05-13T21:44:50.546Z,100347.41
2018-05-13T21:47:23.074Z,100346.96
2018-05-13T21:49:55.711Z,100343.73
2018-05-13T21:52:28.382Z,100345.61
2018-05-13T21:55:00.884Z,100340.59
2018-05-13T21:57:33.877Z,100339.19
2018-05-13T22:00:06.939Z,100341.13
2018-05-13T22:02:39.478Z,100346.08
2018-05-13T22:05:12.289Z,100344.71
2018-05-13T22:07:44.978Z,100353.02
2018-05-13T22:10:17.483Z,100350.55
2018-05-13T22:12:49.999Z,100346.54
2018-05-13T22:15:22.564Z,100350.88
2018-05-13T22:17:55.079Z,100357.23
2018-05-13T22:20:27.592Z,100354.63
2018-05-13T22:23:00.106Z,100359.08
2018-05-13T22:25:32.605Z,100357.08
2018-05-13T22:28:06.268Z,100362.67
2018-05-13T22:30:39.342Z,100359.63
2018-05-13T22:33:11.857Z,100365.67
2018-05-13T22:35:45.851Z,100366.72
2018-05-13T22:38:18.469Z,100376.79
2018-05-13T22:40:51.291Z,100370.70
2018-05-13T22:43:23.837Z,100371.45
2018-05-13T22:45:56.414Z,100371.41
2018-05-13T22:48:28.944Z,100367.55
2018-05-13T22:51:01.482Z,100371.69
2018-05-13T22:53:33.975Z,100371.84
2018-05-13T22:56:06.647Z,100379.69
2018-05-13T22:58:39.218Z,100368.77
2018-05-13T23:01:11.855Z,100378.39
2018-05-13T23:03:44.370Z,100382.64
2018-05-13T23:06:16.948Z,100376.72
2018-05-13T23:08:49.461Z,100377.48
2018-05-13T23:11:23.085Z,100381.02
2018-05-13T23:13:55.625Z,100374.52
2018-05-13T23:16:28.166Z,100383.62
2018-05-13T23:19:00.900Z,100375.11
2018-05-13T23:21:33.429Z,100377.80
2018-05-13T23:24:05.931Z,100379.70
2018-05-13T23:26:38.648Z,100380.62
2018-05-13T23:29:11.261Z,100382.87
2018-05-13T23:31:43.813Z,100381.80
2018-05-13T23:34:16.428Z,100388.41
2018-05-13T23:36:48.955Z,100380.71
2018-05-13T23:39:21.454Z,100373.32
2018-05-13T23:41:53.971Z,100378.90
2018-05-13T23:44:26.472Z,100372.95
2018-05-13T23:46:58.995Z,100375.02
2018-05-13T23:49:31.488Z,100374.17
2018-05-13T23:52:04.011Z,100374.17
2018-05-13T23:54:36.611Z,100375.75
2018-05-13T23:57:09.261Z,100379.20
2018-05-13T23:59:41.766Z,100379.91
